• Join FlightAware (Why Join?)
  • Login
  • US Flag 
02:06AM EDT


 

Airport Tracker/Info


-or-


 

Live Flight TrackerFlight Track Log ✈ ASQ6151 ✈ 03-Jul-2013 ✈ KBWI - KORD

Flight Track Log - Related Links

Times and Time Zones

All times are in EDT time to prevent confusion due to time zone crossing. See the ASQ6151 flight status page for this flight to view local times or setup timezone preferences in your user account.

Time Position Orientation Groundspeed Altitude Reporting Facility
EDT Latitude Longitude Course Direction KTS MPH feet Rate Location/Type
05:38AM 39.1333 -76.7000 261° West 191 220 4,400  Level Potomac TRACON
05:39AM 39.1500 -76.7667 288° West 220 253 6,100 1,800 Climbing Potomac TRACON
05:40AM 39.1667 -76.8333 288° West 236 272 7,900 1,860 Climbing Potomac TRACON
05:41AM 39.0843 -77.2438 211° Southwest  Level FlightAware Approximate
05:41AM 39.1500 -76.9000 252° West 252 290 9,300  Level Potomac TRACON
05:42AM 38.9995 -77.3194 256° West  Level FlightAware Approximate
05:43AM 38.9713 -77.4481 252° West  Level FlightAware Approximate
05:44AM 38.9526 -77.5794 261° West  Level FlightAware Approximate
05:44AM 39.1181 -77.1567 261° West 301 346 12,100  Level Washington Center
05:45AM 39.1017 -77.2739 260° West 322 371 13,200 960 Climbing Washington Center
05:46AM 39.0833 -77.3992 259° West 344 396 14,100 960 Climbing Washington Center
05:47AM 39.0647 -77.5244 259° West 358 412 15,200 1,080 Climbing Washington Center
05:48AM 39.0436 -77.6656 259° West 364 419 16,300 960 Climbing Washington Center
05:49AM 39.0269 -77.7800 259° West 369 425 17,200 780 Climbing Washington Center
05:50AM 39.0097 -77.9264 261° West 375 432 17,900 840 Climbing Washington Center
05:51AM 39.0153 -78.0547 273° West 370 426 18,900 900 Climbing Washington Center
05:52AM 39.0208 -78.1911 273° West 370 426 19,800 960 Climbing Washington Center
05:53AM 39.0283 -78.3225 274° West 370 426 20,800 960 Climbing Washington Center
05:54AM 39.0336 -78.4589 273° West 370 426 21,800 900 Climbing Washington Center
05:55AM 39.0406 -78.5928 274° West 375 432 22,700 900 Climbing Washington Center
05:56AM 39.0475 -78.7294 274° West 385 443 23,700 900 Climbing Washington Center
05:57AM 39.0544 -78.8633 274° West 385 443 24,600 900 Climbing Washington Center
05:58AM 39.0611 -79.0000 274° West 385 443 25,600 960 Climbing Washington Center
05:59AM 39.0656 -79.1339 272° West 385 443 26,600 900 Climbing Washington Center
06:00AM 39.0739 -79.2733 274° West 385 443 27,500 900 Climbing Washington Center
06:01AM 39.0803 -79.4047 274° West 385 443 28,500 900 Climbing Washington Center
06:02AM 39.0842 -79.5442 272° West 385 443 29,400 840 Climbing Washington Center
06:03AM 39.0883 -79.6619 273° West 385 443 30,200 900 Climbing Washington Center
06:04AM 39.0942 -79.7961 273° West 385 443 31,200 960 Climbing Washington Center
06:05AM 39.0958 -79.9708 271° West 379 436 32,500 960 Climbing Indianapolis Center
06:06AM 39.1008 -80.1083 273° West 383 441 33,500 900 Climbing Indianapolis Center
06:07AM 39.1044 -80.2447 272° West 381 438 34,400 900 Climbing Indianapolis Center
06:08AM 39.1089 -80.3811 272° West 382 440 35,400 780 Climbing Indianapolis Center
06:09AM 39.1136 -80.5161 273° West 379 436 36,000 240 Climbing Indianapolis Center
06:10AM 39.1444 -80.6536 286° West 414 476 36,000  Level Indianapolis Center
06:11AM 39.2164 -80.8194 299° West 441 507 36,000  Level Indianapolis Center
06:12AM 39.2783 -80.9619 299° West 455 524 36,000  Level Indianapolis Center
06:13AM 39.3375 -81.1003 299° West 444 511 36,000  Level Indianapolis Center
06:14AM 39.3981 -81.2422 299° West 450 518 36,000  Level Indianapolis Center
06:15AM 39.4583 -81.3836 299° West 450 518 36,000  Level Indianapolis Center
06:16AM 39.5175 -81.5239 299° West 448 516 36,000  Level Indianapolis Center
06:17AM 39.5775 -81.6656 299° West 449 517 36,000  Level Indianapolis Center
06:18AM 39.6367 -81.8072 299° West 450 518 36,000  Level Indianapolis Center
06:19AM 39.6967 -81.9483 299° West 448 516 36,000  Level Indianapolis Center
06:20AM 39.7600 -82.1019 298° West 450 518 36,000  Level Indianapolis Center
06:21AM 39.8200 -82.2464 298° West 450 518 36,000  Level Indianapolis Center
06:22AM 39.8800 -82.3925 298° West 455 524 36,000  Level Indianapolis Center
06:23AM 39.9397 -82.5381 298° West 454 522 36,000  Level Indianapolis Center
06:24AM 40.0000 -82.6842 298° West 455 524 36,000  Level Indianapolis Center
06:25AM 40.0594 -82.8294 298° West 452 520 36,000  Level Indianapolis Center
06:26AM 40.1172 -82.9739 298° West 449 517 36,000  Level Indianapolis Center
06:27AM 40.1769 -83.1200 298° West 454 522 36,000  Level Indianapolis Center
06:28AM 40.2353 -83.2650 298° West 452 520 36,000  Level Indianapolis Center
06:29AM 40.2928 -83.4114 297° West 451 519 36,000  Level Indianapolis Center
06:30AM 40.3500 -83.5564 297° West 449 517 36,000  Level Indianapolis Center
06:31AM 40.4075 -83.7003 298° West 445 512 36,000  Level Indianapolis Center
06:32AM 40.4644 -83.8450 297° West 445 512 36,000 -300 Level Indianapolis Center
06:33AM 40.5211 -83.9892 297° West 443 510 35,500 -780 Descending Indianapolis Center
06:34AM 40.5769 -84.1342 297° West 443 510 34,500 -780 Descending Indianapolis Center
06:35AM 40.6322 -84.2772 297° West 437 503 34,000 -300 Descending Indianapolis Center
06:36AM 40.6869 -84.4203 297° West 436 502 34,000  Level Indianapolis Center
06:37AM 40.7436 -84.5658 297° West 443 510 34,000  Level Indianapolis Center
06:38AM 40.8006 -84.7142 297° West 450 518 34,000  Level Indianapolis Center
06:39AM 40.8625 -84.8825 296° West 451 519 34,000  Level Chicago Center
06:40AM 40.9081 -85.0353 292° West 447 514 34,000  Level Chicago Center
06:41AM 40.9539 -85.1911 291° West 451 519 34,000  Level Chicago Center
06:42AM 41.0000 -85.3450 292° West 451 519 34,000 -840 Level Chicago Center
06:43AM 41.0456 -85.4994 291° West 449 517 32,300 -1,920 Descending Chicago Center
06:44AM 41.0889 -85.6497 291° West 438 504 30,200 -2,220 Descending Chicago Center
06:45AM 41.1319 -85.7994 291° West 434 499 27,900 -2,220 Descending Chicago Center
06:46AM 41.1753 -85.9489 291° West 433 498 25,700 -2,220 Descending Chicago Center
06:47AM 41.2192 -86.1022 291° West 442 509 23,500 -2,340 Descending Chicago Center
06:49AM 41.2711 -86.2836 291° West 438 504 21,000 -2,220 Descending Chicago Center
06:50AM 41.3078 -86.4119 291° West 381 438 19,100 -1,920 Descending Chicago Center
06:51AM 41.3419 -86.5378 290° West 365 420 17,100 -1,080 Descending Chicago Center
06:52AM 41.3764 -86.6589 291° West 354 407 17,000 -360 Descending Chicago Center
06:53AM 41.4111 -86.7808 291° West 349 402 16,400 -840 Descending Chicago Center
06:54AM 41.4436 -86.8956 291° West 339 390 15,400 -1,020 Descending Chicago Center
06:55AM 41.4733 -87.0064 290° West 325 374 14,400 -960 Descending Chicago Center
06:56AM 41.5033 -87.1167 290° West 321 369 13,500 -960 Descending Chicago Center
06:57AM 41.5486 -87.2089 303° West 310 357 12,500 -1,020 Descending Chicago Center
06:58AM 41.5961 -87.2872 309° West 283 326 11,500 -1,020 Descending Chicago Center
06:59AM 41.6375 -87.3528 310° West 249 287 10,500 -1,200 Descending Chicago Center
07:00AM 41.6758 -87.4147 310° West 226 260 9,200 -1,200 Descending Chicago Center
07:01AM 41.7219 -87.4889 310° West 220 253 8,100 -600 Descending Chicago Center
07:02AM 41.7608 -87.5494 311° West 217 250 8,000 -60 Descending Chicago Center
07:03AM 41.8175 -87.5681 346° North 224 258 8,000  Level Chicago Center
07:04AM 41.8789 -87.5686 360° North 221 254 8,000 -120 Level Chicago Center
07:05AM 41.8994 -87.5064 66° East 201 231 7,800 -600 Descending Chicago Center
07:06AM 41.9228 -87.4450 63° Northeast 222 255 6,900 -900 Descending Chicago Center
07:07AM 41.9575 -87.4997 310° West 208 239 6,000 -960 Descending Chicago Center
07:08AM 41.9694 -87.5736 282° West 208 239 5,000 -960 Descending Chicago Center
07:09AM 41.9686 -87.6467 269° West 201 231 4,100 -1,020 Descending Chicago Center
07:10AM 41.9692 -87.7203 271° West 199 229 3,000 -1,140 Descending Chicago Center
07:11AM 41.9689 -87.8072 270° West 198 228 1,800 -900 Descending Chicago Center
07:12AM 41.9686 -87.8561 270° West 188 216 1,200 -600 Descending Chicago Center
07:14AM 41.9667 -87.9000 304° West  Level FlightAware Approximate